Time;durP1;ratioP1;P1;durP2;ratioP2;P2;SDS_P1;SDS_P2;PMS_P1;PMS_P2;Temp;Humidity;BMP_temperature;BMP_pressure;BME280_temperature;BME280_humidity;BME280_pressure;Samples;Min_cycle;Max_cycle;Signal;HPM_P1;HPM_P2
2023/02/21 02:15:46;;;;;;;5.10;2.20;;;;;;;3.60;100.00;97489.00;109926;1277;22327;-67
2023/02/21 02:18:46;;;;;;;6.70;2.70;;;;;;;3.62;100.00;97492.63;110152;1271;22173;-67
2023/02/21 02:21:49;;;;;;;6.00;2.10;;;;;;;3.66;100.00;97495.40;109945;1277;22420;-67
2023/02/21 02:24:32;;;;;;;5.20;1.90;;;;;;;3.68;100.00;97499.26;110069;1277;22652;-67
2023/02/21 02:27:20;;;;;;;5.10;2.00;;;;;;;3.71;100.00;97501.59;110107;1276;23022;-66
2023/02/21 02:30:10;;;;;;;4.00;1.60;;;;;;;3.77;100.00;97505.55;110047;1276;22423;-66
2023/02/21 02:32:57;;;;;;;3.90;1.80;;;;;;;3.81;100.00;97504.42;110016;1278;22977;-66
2023/02/21 02:35:36;;;;;;;3.70;1.70;;;;;;;3.86;100.00;97496.90;110019;1276;22348;-66
2023/02/21 02:38:26;;;;;;;5.50;2.30;;;;;;;3.88;100.00;97498.55;109975;1278;22836;-66
2023/02/21 02:41:13;;;;;;;6.50;2.30;;;;;;;3.91;100.00;97500.41;109884;1278;22758;-66
2023/02/21 02:43:50;;;;;;;4.10;1.70;;;;;;;3.92;100.00;97495.73;110178;1277;22398;-65
2023/02/21 02:46:24;;;;;;;4.70;1.70;;;;;;;3.91;100.00;97504.29;109868;1277;22287;-65
2023/02/21 02:49:20;;;;;;;5.00;1.90;;;;;;;3.93;100.00;97506.25;110118;1278;22250;-66
2023/02/21 02:51:49;;;;;;;3.70;1.40;;;;;;;3.95;100.00;97503.23;110001;1278;23218;-65
2023/02/21 02:54:18;;;;;;;5.80;1.50;;;;;;;3.94;100.00;97499.73;110067;1275;22384;-65
2023/02/21 02:56:46;;;;;;;4.00;1.50;;;;;;;3.95;100.00;97501.30;110156;1276;23003;-65
2023/02/21 02:59:20;;;;;;;3.50;1.40;;;;;;;3.96;100.00;97498.15;110175;1271;22313;-66
2023/02/21 03:02:12;;;;;;;6.10;1.50;;;;;;;3.93;100.00;97501.48;110221;1276;22279;-65
2023/02/21 03:05:05;;;;;;;4.00;1.50;;;;;;;3.91;100.00;97505.69;110196;1269;23242;-65
2023/02/21 03:08:08;;;;;;;7.00;1.90;;;;;;;3.94;100.00;97504.75;110110;1272;23908;-65
2023/02/21 03:10:46;;;;;;;6.00;1.50;;;;;;;3.95;100.00;97507.98;109866;1276;22522;-65
2023/02/21 03:13:34;;;;;;;5.40;1.70;;;;;;;3.95;100.00;97514.00;110112;1275;22334;-66
2023/02/21 03:16:23;;;;;;;4.00;1.10;;;;;;;3.95;100.00;97511.14;110187;1276;22342;-66
2023/02/21 03:19:14;;;;;;;6.10;1.60;;;;;;;3.94;100.00;97515.67;110226;1275;22855;-65
2023/02/21 03:21:50;;;;;;;5.00;1.50;;;;;;;3.95;100.00;97516.05;110204;1276;22388;-66
2023/02/21 03:24:19;;;;;;;6.30;1.70;;;;;;;3.96;100.00;97518.98;110028;1275;22968;-66
2023/02/21 03:26:48;;;;;;;4.90;1.60;;;;;;;3.94;100.00;97521.27;110092;1276;22466;-65
2023/02/21 03:29:37;;;;;;;4.00;1.30;;;;;;;3.88;100.00;97525.04;110110;1277;22447;-66
2023/02/21 03:34:40;;;;;;;6.20;1.40;;;;;;;3.90;100.00;97523.56;110062;1276;22392;-66
2023/02/21 03:37:17;;;;;;;5.50;1.50;;;;;;;3.89;100.00;97515.29;110118;1277;22734;-66
2023/02/21 03:39:46;;;;;;;5.60;1.60;;;;;;;3.86;100.00;97520.38;110092;1274;23491;-66
2023/02/21 03:42:15;;;;;;;6.20;1.80;;;;;;;3.81;100.00;97528.00;110121;1276;22249;-65
2023/02/21 03:44:43;;;;;;;6.00;1.40;;;;;;;3.82;100.00;97530.27;110223;1276;22437;-65
2023/02/21 03:47:11;;;;;;;4.30;1.30;;;;;;;3.83;100.00;97527.39;110111;1277;22279;-65
2023/02/21 03:49:40;;;;;;;5.50;1.70;;;;;;;3.83;100.00;97529.23;110105;1272;22722;-65
2023/02/21 03:52:11;;;;;;;5.30;1.50;;;;;;;3.82;100.00;97525.50;108234;1276;27091;-65
2023/02/21 03:54:40;;;;;;;5.20;1.40;;;;;;;3.79;100.00;97529.48;107722;1276;23390;-65
2023/02/21 03:57:09;;;;;;;5.00;1.50;;;;;;;3.78;100.00;97531.95;107560;1270;24373;-64
2023/02/21 03:59:44;;;;;;;5.30;1.60;;;;;;;3.80;100.00;97526.77;107611;1273;22592;-64
2023/02/21 04:02:13;;;;;;;5.90;1.40;;;;;;;3.80;100.00;97522.25;108432;1272;22929;-65
2023/02/21 04:04:42;;;;;;;4.40;1.30;;;;;;;3.74;100.00;97525.95;107793;1253;24204;-65
2023/02/21 04:07:15;;;;;;;4.90;1.50;;;;;;;3.71;100.00;97521.79;106489;1273;23032;-65
2023/02/21 04:09:47;;;;;;;4.40;1.20;;;;;;;3.73;100.00;97518.27;107595;1277;22604;-65
2023/02/21 04:12:21;;;;;;;4.80;1.20;;;;;;;3.79;100.00;97512.45;107119;1276;22544;-65
2023/02/21 04:14:51;;;;;;;6.40;1.40;;;;;;;3.83;100.00;97511.04;107015;1270;22532;-65
2023/02/21 04:17:20;;;;;;;6.20;1.50;;;;;;;3.84;100.00;97506.28;106512;1273;23335;-65
2023/02/21 04:19:48;;;;;;;4.50;1.00;;;;;;;3.80;100.00;97502.83;106766;1270;24393;-65
2023/02/21 04:22:17;;;;;;;3.70;1.20;;;;;;;3.75;100.00;97502.27;106609;1270;25520;-64
2023/02/21 04:24:47;;;;;;;5.90;1.00;;;;;;;3.72;100.00;97499.60;106519;1273;25335;-65
2023/02/21 04:27:16;;;;;;;5.50;1.30;;;;;;;3.69;100.00;97507.20;108234;1270;24250;-65
2023/02/21 04:29:50;;;;;;;5.40;1.00;;;;;;;3.66;100.00;97513.48;107616;1272;22528;-65
2023/02/21 04:32:21;;;;;;;5.50;1.40;;;;;;;3.66;100.00;97513.96;107817;1270;22637;-65
2023/02/21 04:34:50;;;;;;;4.90;1.40;;;;;;;3.61;100.00;97511.04;110152;1274;23034;-65
2023/02/21 04:37:18;;;;;;;4.00;1.00;;;;;;;3.56;100.00;97507.91;110345;1269;22460;-66
2023/02/21 04:39:47;;;;;;;5.40;1.10;;;;;;;3.59;100.00;97518.91;110313;1269;22205;-65
2023/02/21 04:42:16;;;;;;;3.60;1.10;;;;;;;3.64;100.00;97514.08;110177;1276;23082;-66
2023/02/21 04:44:45;;;;;;;5.00;1.20;;;;;;;3.66;100.00;97513.16;110198;1276;22387;-65
2023/02/21 04:47:26;;;;;;;4.90;1.20;;;;;;;3.63;100.00;97512.31;110276;1275;22236;-66
2023/02/21 04:49:55;;;;;;;6.30;1.50;;;;;;;3.65;100.00;97515.92;110314;1269;22394;-65
2023/02/21 04:52:23;;;;;;;5.10;1.20;;;;;;;3.67;100.00;97513.63;110327;1274;22453;-65
2023/02/21 04:54:52;;;;;;;4.10;1.20;;;;;;;3.74;100.00;97514.23;110336;1274;22857;-66
2023/02/21 04:57:21;;;;;;;4.90;1.30;;;;;;;3.77;100.00;97517.27;110273;1275;22330;-66
2023/02/21 04:59:55;;;;;;;6.10;1.70;;;;;;;3.78;100.00;97513.70;110328;1272;23113;-65
2023/02/21 05:02:24;;;;;;;5.30;1.40;;;;;;;3.85;100.00;97516.50;110314;1274;22673;-66
2023/02/21 05:04:54;;;;;;;5.70;1.50;;;;;;;3.90;100.00;97518.35;110283;1270;23252;-65
2023/02/21 05:07:22;;;;;;;5.50;1.40;;;;;;;3.91;100.00;97522.05;110297;1275;22388;-65
2023/02/21 05:09:53;;;;;;;5.10;1.40;;;;;;;3.90;100.00;97521.73;110252;1272;22340;-66
2023/02/21 05:12:21;;;;;;;5.60;1.40;;;;;;;3.84;100.00;97526.20;110333;1275;23019;-65
2023/02/21 05:14:50;;;;;;;5.50;1.30;;;;;;;3.80;100.00;97520.20;110173;1276;22927;-65
2023/02/21 05:17:18;;;;;;;4.70;1.10;;;;;;;3.78;100.00;97518.45;110293;1271;23068;-66
2023/02/21 05:19:46;;;;;;;4.60;1.50;;;;;;;3.74;100.00;97517.02;110347;1274;22451;-66
2023/02/21 05:22:19;;;;;;;4.00;1.40;;;;;;;3.65;100.00;97518.02;110361;1275;22416;-65
2023/02/21 05:24:48;;;;;;;4.40;1.30;;;;;;;3.63;100.00;97514.42;110332;1270;22424;-66
2023/02/21 05:27:17;;;;;;;4.40;1.10;;;;;;;3.62;100.00;97520.92;110273;1269;23639;-65
2023/02/21 05:29:50;;;;;;;4.70;1.20;;;;;;;3.60;100.00;97518.80;110328;1275;22328;-66
2023/02/21 05:32:20;;;;;;;3.10;1.10;;;;;;;3.56;100.00;97516.31;110356;1275;22395;-65
2023/02/21 05:34:49;;;;;;;7.00;1.30;;;;;;;3.50;100.00;97518.15;110328;1275;22978;-65
2023/02/21 05:37:19;;;;;;;6.00;1.40;;;;;;;3.55;100.00;97522.12;110248;1268;22824;-66
2023/02/21 05:39:48;;;;;;;8.20;1.90;;;;;;;3.59;100.00;97519.57;110290;1275;22345;-65
2023/02/21 05:42:16;;;;;;;4.10;1.30;;;;;;;3.59;100.00;97515.79;110316;1270;23015;-66
2023/02/21 05:44:45;;;;;;;4.10;1.10;;;;;;;3.58;100.00;97516.67;110303;1275;22385;-65
2023/02/21 05:47:14;;;;;;;6.50;1.40;;;;;;;3.53;100.00;97510.13;110240;1273;22389;-65
2023/02/21 05:49:42;;;;;;;6.60;1.30;;;;;;;3.56;100.00;97510.70;110310;1271;23281;-66
2023/02/21 05:52:10;;;;;;;5.20;1.30;;;;;;;3.62;100.00;97521.26;108568;1270;26038;-65
2023/02/21 05:54:39;;;;;;;5.80;1.30;;;;;;;3.68;100.00;97519.77;107888;1272;23158;-65
2023/02/21 05:57:07;;;;;;;5.50;1.30;;;;;;;3.70;100.00;97524.65;107681;1272;25409;-66
2023/02/21 05:59:36;;;;;;;4.90;1.10;;;;;;;3.73;100.00;97517.56;107746;1272;24267;-65
2023/02/21 06:02:05;;;;;;;4.90;1.50;;;;;;;3.80;100.00;97518.59;107760;1275;23659;-66
2023/02/21 06:04:34;;;;;;;4.40;1.50;;;;;;;3.82;100.00;97520.24;107707;1270;22881;-66
2023/02/21 06:07:02;;;;;;;5.40;2.00;;;;;;;3.85;100.00;97530.13;107716;1270;22605;-66
2023/02/21 06:09:30;;;;;;;5.30;2.50;;;;;;;3.92;100.00;97529.04;107873;1272;22569;-66
2023/02/21 06:11:58;;;;;;;5.90;2.60;;;;;;;4.03;100.00;97530.98;107706;1273;22572;-65
2023/02/21 06:14:31;;;;;;;9.90;3.20;;;;;;;4.08;100.00;97529.77;107680;1269;22532;-66
2023/02/21 06:17:00;;;;;;;5.90;2.80;;;;;;;4.13;100.00;97527.57;107652;1270;22554;-66
2023/02/21 06:19:28;;;;;;;6.30;2.50;;;;;;;4.26;100.00;97531.84;107662;1268;23325;-66
2023/02/21 06:22:00;;;;;;;6.70;2.40;;;;;;;4.43;100.00;97525.33;107663;1276;24142;-66
2023/02/21 06:24:29;;;;;;;5.90;2.10;;;;;;;4.50;100.00;97521.26;107813;1269;25478;-66
2023/02/21 06:26:58;;;;;;;5.70;1.80;;;;;;;4.54;100.00;97520.95;110334;1275;23074;-67
2023/02/21 06:29:26;;;;;;;6.20;2.00;;;;;;;4.63;100.00;97525.27;110345;1274;23130;-67
2023/02/21 06:31:58;;;;;;;6.80;2.00;;;;;;;4.78;100.00;97520.19;110370;1275;22757;-66
2023/02/21 06:34:26;;;;;;;5.90;1.50;;;;;;;4.88;100.00;97526.44;107609;1270;22523;-66
2023/02/21 06:36:56;;;;;;;5.00;1.60;;;;;;;4.90;100.00;97518.81;107938;1273;25297;-66
2023/02/21 06:39:24;;;;;;;5.40;1.20;;;;;;;4.87;100.00;97523.91;107654;1271;25463;-66
2023/02/21 06:41:52;;;;;;;5.30;1.10;;;;;;;4.92;100.00;97526.87;107527;1269;26253;-65
2023/02/21 06:44:20;;;;;;;6.10;1.60;;;;;;;4.95;100.00;97529.89;107604;1269;22642;-66
2023/02/21 06:46:55;;;;;;;5.90;1.70;;;;;;;5.00;100.00;97535.33;107559;1273;25376;-65
2023/02/21 06:49:23;;;;;;;6.30;1.70;;;;;;;5.11;100.00;97532.78;107475;1270;26156;-66
2023/02/21 06:51:52;;;;;;;5.10;1.60;;;;;;;5.24;100.00;97536.05;107498;1267;22575;-67
2023/02/21 06:54:20;;;;;;;5.80;1.70;;;;;;;5.24;100.00;97536.87;107593;1267;22869;-66
2023/02/21 06:56:48;;;;;;;5.30;1.40;;;;;;;5.23;100.00;97535.80;107488;1273;22746;-66
2023/02/21 06:59:16;;;;;;;8.70;1.90;;;;;;;5.24;100.00;97534.86;107559;1273;24340;-66
2023/02/21 07:01:44;;;;;;;6.70;2.20;;;;;;;5.22;100.00;97536.61;107674;1273;23178;-66
2023/02/21 07:04:13;;;;;;;10.10;3.20;;;;;;;5.15;100.00;97535.31;107637;1275;25316;-66
2023/02/21 07:06:42;;;;;;;6.50;2.10;;;;;;;5.13;100.00;97532.80;107592;1269;22756;-66
2023/02/21 07:09:10;;;;;;;6.30;2.10;;;;;;;5.20;100.00;97523.66;107677;1269;22523;-65
2023/02/21 07:11:40;;;;;;;6.80;2.00;;;;;;;5.35;100.00;97527.64;108331;1270;22968;-66
2023/02/21 07:14:09;;;;;;;6.90;2.10;;;;;;;5.50;100.00;97517.18;110325;1270;23051;-66
2023/02/21 07:16:37;;;;;;;7.00;2.20;;;;;;;5.59;100.00;97511.80;110382;1274;22884;-67
2023/02/21 07:19:05;;;;;;;6.00;1.80;;;;;;;5.60;100.00;97510.65;110342;1272;22491;-67
2023/02/21 07:21:34;;;;;;;8.50;2.40;;;;;;;5.61;100.00;97507.99;110367;1269;22262;-67
2023/02/21 07:24:02;;;;;;;4.60;1.80;;;;;;;5.60;100.00;97509.25;110167;1274;22302;-66
2023/02/21 07:26:30;;;;;;;6.90;2.00;;;;;;;5.62;100.00;97498.80;110309;1272;22305;-67
2023/02/21 07:28:59;;;;;;;6.70;1.90;;;;;;;5.68;100.00;97498.61;110289;1275;22420;-67
2023/02/21 07:31:27;;;;;;;5.80;1.60;;;;;;;5.75;100.00;97494.38;110320;1274;23157;-67
2023/02/21 07:33:55;;;;;;;7.10;1.90;;;;;;;5.88;100.00;97494.09;110200;1269;22698;-66
2023/02/21 07:36:24;;;;;;;7.60;2.00;;;;;;;5.98;100.00;97489.05;110329;1270;23279;-67
2023/02/21 07:38:52;;;;;;;5.30;1.70;;;;;;;6.02;100.00;97490.98;110265;1269;22232;-67
2023/02/21 07:41:21;;;;;;;5.70;1.60;;;;;;;6.05;100.00;97488.20;110262;1271;22541;-67
2023/02/21 07:43:50;;;;;;;5.60;1.60;;;;;;;6.10;100.00;97482.58;110204;1270;22384;-66
2023/02/21 07:46:18;;;;;;;7.40;1.60;;;;;;;6.09;100.00;97480.89;110232;1275;22361;-66
2023/02/21 07:48:46;;;;;;;5.10;1.50;;;;;;;6.03;100.00;97483.38;110351;1270;22374;-65
2023/02/21 07:51:14;;;;;;;5.80;1.50;;;;;;;5.99;100.00;97481.60;110241;1269;22369;-66
2023/02/21 07:53:44;;;;;;;7.10;1.80;;;;;;;6.01;100.00;97479.63;110261;1269;22423;-65
2023/02/21 07:56:12;;;;;;;7.80;2.00;;;;;;;5.96;100.00;97490.94;110383;1273;22391;-66
2023/02/21 07:58:41;;;;;;;7.60;2.00;;;;;;;5.93;100.00;97487.64;110309;1274;22347;-67
2023/02/21 08:01:38;;;;;;;8.80;1.70;;;;;;;5.94;100.00;97488.86;110548;1260;22354;31
2023/02/21 08:04:07;;;;;;;7.40;1.90;;;;;;;6.01;100.00;97501.92;107940;1276;22874;-84
2023/02/21 08:06:42;;;;;;;5.50;1.60;;;;;;;5.95;100.00;97497.11;107629;1275;23849;-84
2023/02/21 08:09:10;;;;;;;7.50;2.10;;;;;;;5.88;100.00;97491.94;107757;1273;22033;-80
2023/02/21 08:11:39;;;;;;;8.90;1.60;;;;;;;5.86;100.00;97494.07;108261;1272;25457;-81
2023/02/21 08:14:08;;;;;;;5.50;1.70;;;;;;;5.85;100.00;97502.13;107782;1274;22818;-82
2023/02/21 08:16:36;;;;;;;6.70;1.60;;;;;;;5.76;100.00;97499.56;108151;1252;78267;-68
2023/02/21 08:19:08;;;;;;;6.20;1.30;;;;;;;5.66;100.00;97500.64;107472;1270;26214;-66
2023/02/21 08:21:36;;;;;;;5.80;1.40;;;;;;;5.60;100.00;97513.19;107508;1271;22578;-66
2023/02/21 08:24:04;;;;;;;8.30;1.90;;;;;;;5.59;100.00;97517.48;107531;1273;25249;-66
2023/02/21 08:26:33;;;;;;;8.30;1.90;;;;;;;5.49;100.00;97513.67;107500;1277;22580;-66
2023/02/21 08:29:02;;;;;;;6.40;1.40;;;;;;;5.35;100.00;97515.14;107526;1277;25574;-65
2023/02/21 08:31:39;;;;;;;6.80;1.90;;;;;;;5.24;100.00;97514.69;107567;1273;25278;-66
2023/02/21 08:34:08;;;;;;;9.80;2.50;;;;;;;5.19;100.00;97516.27;107380;1275;22744;-66
2023/02/21 08:36:38;;;;;;;8.60;2.30;;;;;;;5.15;100.00;97522.86;107384;1274;22615;-66
2023/02/21 08:39:07;;;;;;;8.70;2.50;;;;;;;5.14;100.00;97520.05;107350;1276;25250;-67
2023/02/21 08:41:38;;;;;;;10.20;2.20;;;;;;;5.20;100.00;97513.45;107518;1274;22561;-66
2023/02/21 08:44:06;;;;;;;6.20;2.00;;;;;;;5.26;100.00;97508.23;107500;1277;22528;-67
2023/02/21 08:46:35;;;;;;;6.30;2.10;;;;;;;5.27;100.00;97505.38;107484;1270;22638;-67
2023/02/21 08:49:04;;;;;;;6.80;1.80;;;;;;;5.27;100.00;97502.83;107460;1274;24455;-67
2023/02/21 08:51:32;;;;;;;7.60;1.80;;;;;;;5.35;100.00;97500.02;107458;1273;23483;-68
2023/02/21 08:54:00;;;;;;;7.80;1.70;;;;;;;5.45;100.00;97503.98;107534;1272;23800;-67
2023/02/21 08:56:29;;;;;;;8.50;2.00;;;;;;;5.50;100.00;97501.63;107493;1273;25398;-67
2023/02/21 08:58:58;;;;;;;7.60;1.80;;;;;;;5.62;100.00;97500.65;107526;1274;24398;-67
2023/02/21 09:01:33;;;;;;;7.00;1.70;;;;;;;5.83;100.00;97497.83;107504;1271;25477;-67
2023/02/21 09:04:03;;;;;;;7.10;1.80;;;;;;;5.96;100.00;97485.09;107457;1271;23234;-67
2023/02/21 09:06:32;;;;;;;6.80;1.70;;;;;;;6.02;100.00;97487.12;107479;1278;22561;-67
2023/02/21 09:09:01;;;;;;;5.30;1.30;;;;;;;6.06;100.00;97478.52;107620;1278;23289;-68
2023/02/21 09:11:29;;;;;;;7.10;1.90;;;;;;;6.20;100.00;97474.20;107539;1274;23339;-68
2023/02/21 09:13:58;;;;;;;4.40;1.20;;;;;;;6.51;100.00;97462.15;107286;1273;22537;-68
2023/02/21 09:16:27;;;;;;;8.30;2.00;;;;;;;6.77;100.00;97461.98;107358;1272;26367;-69
2023/02/21 09:18:56;;;;;;;8.20;1.70;;;;;;;7.01;100.00;97466.73;107511;1270;25840;-69
2023/02/21 09:21:24;;;;;;;4.60;1.10;;;;;;;7.17;100.00;97459.02;107612;1269;22744;-69
2023/02/21 09:23:54;;;;;;;6.50;1.70;;;;;;;7.22;100.00;97457.67;107692;1277;23565;-68
2023/02/21 09:26:30;;;;;;;5.90;1.30;;;;;;;7.19;100.00;97455.16;107491;1271;26930;-68
2023/02/21 09:29:01;;;;;;;6.60;1.80;;;;;;;7.10;100.00;97454.98;107722;1272;22557;-68
2023/02/21 09:31:30;;;;;;;7.40;1.80;;;;;;;7.05;100.00;97453.26;107648;1273;23049;-68
2023/02/21 09:33:58;;;;;;;6.40;1.80;;;;;;;7.07;100.00;97454.16;107573;1277;22568;-68
2023/02/21 09:36:47;;;;;;;7.40;2.50;;;;;;;7.05;100.00;97456.00;107476;1270;26505;-68
2023/02/21 09:39:16;;;;;;;5.70;1.80;;;;;;;6.93;100.00;97461.56;107601;1270;25429;-68
2023/02/21 09:41:45;;;;;;;8.80;1.80;;;;;;;6.80;100.00;97460.00;107768;1271;22542;-67
2023/02/21 09:44:19;;;;;;;3.50;1.00;;;;;;;6.77;100.00;97463.54;107702;1269;22566;-67
2023/02/21 09:46:49;;;;;;;4.30;1.20;;;;;;;6.81;100.00;97462.37;107376;1272;23007;-67
2023/02/21 09:49:32;;;;;;;3.70;1.00;;;;;;;6.83;100.00;97467.28;107540;1276;25222;-68
2023/02/21 09:52:00;;;;;;;6.30;1.20;;;;;;;6.82;100.00;97471.33;107443;1278;22743;-68
2023/02/21 09:54:34;;;;;;;5.50;1.50;;;;;;;6.74;100.00;97468.46;107515;1277;23331;-68
2023/02/21 09:57:04;;;;;;;3.80;1.20;;;;;;;6.65;100.00;97474.59;107258;1262;23149;-69
2023/02/21 09:59:32;;;;;;;5.30;1.60;;;;;;;6.47;100.00;97473.27;107485;1271;22556;-68
2023/02/21 10:02:13;;;;;;;5.60;1.30;;;;;;;6.35;100.00;97480.94;107376;1278;22769;-67
2023/02/21 10:04:58;;;;;;;4.70;1.70;;;;;;;6.30;100.00;97483.03;107445;1271;25349;-67
2023/02/21 10:07:45;;;;;;;4.70;1.40;;;;;;;6.23;100.00;97482.27;107418;1271;24217;-68
2023/02/21 10:10:52;;;;;;;6.70;2.10;;;;;;;6.09;100.00;97485.91;107512;1274;22552;-68
2023/02/21 10:13:38;;;;;;;5.30;1.30;;;;;;;5.99;100.00;97491.64;107342;1278;24399;-67
2023/02/21 10:16:34;;;;;;;7.00;1.50;;;;;;;5.97;100.00;97489.63;107533;1273;23342;-67
2023/02/21 10:19:36;;;;;;;7.00;1.40;;;;;;;5.90;100.00;97491.96;107672;1269;22549;-67
2023/02/21 10:22:18;;;;;;;5.00;1.60;;;;;;;5.80;100.00;97498.67;107286;1277;22744;-67
2023/02/21 10:24:48;;;;;;;5.90;1.90;;;;;;;5.82;100.00;97504.54;107514;1277;22651;-67
2023/02/21 10:27:21;;;;;;;9.40;2.20;;;;;;;5.78;100.00;97503.89;107693;1278;23348;-67
2023/02/21 10:29:59;;;;;;;7.70;1.80;;;;;;;5.70;100.00;97506.02;110136;1270;22377;-67
2023/02/21 10:32:28;;;;;;;5.90;1.60;;;;;;;5.65;100.00;97507.94;110009;1273;22187;-67
2023/02/21 10:34:57;;;;;;;4.80;1.60;;;;;;;5.65;100.00;97508.53;110147;1272;22246;-67
2023/02/21 10:37:25;;;;;;;6.90;2.00;;;;;;;5.58;100.00;97511.89;110195;1270;22800;-67
2023/02/21 10:39:57;;;;;;;6.20;1.90;;;;;;;5.53;100.00;97512.92;110116;1271;22198;-68
2023/02/21 10:42:30;;;;;;;7.90;2.00;;;;;;;5.51;100.00;97521.48;109912;1278;22280;-66
2023/02/21 10:44:59;;;;;;;6.60;1.70;;;;;;;5.48;100.00;97526.81;109915;1274;22237;-67
2023/02/21 10:47:46;;;;;;;6.40;1.70;;;;;;;5.40;100.00;97532.81;109987;1278;22449;-67
2023/02/21 10:50:14;;;;;;;7.70;1.80;;;;;;;5.30;100.00;97549.09;109988;1274;22327;-67
2023/02/21 10:52:47;;;;;;;5.90;1.70;;;;;;;5.21;100.00;97552.45;109950;1273;22201;-67
2023/02/21 10:55:20;;;;;;;6.10;1.20;;;;;;;5.05;100.00;97558.09;110063;1272;23130;-67
2023/02/21 10:58:08;;;;;;;5.00;1.20;;;;;;;4.86;100.00;97558.80;110121;1270;22244;-66
2023/02/21 11:00:38;;;;;;;5.00;1.30;;;;;;;4.80;100.00;97557.31;110118;1276;22340;-65
2023/02/21 11:03:18;;;;;;;5.90;1.40;;;;;;;4.78;100.00;97545.96;110175;1277;22507;-66
2023/02/21 11:05:51;;;;;;;5.00;1.60;;;;;;;4.74;100.00;97559.48;110145;1277;22392;-67
2023/02/21 11:08:37;;;;;;;4.80;1.60;;;;;;;4.75;100.00;97559.31;110074;1272;23145;-66
2023/02/21 11:11:05;;;;;;;6.60;1.70;;;;;;;4.83;100.00;97566.38;110122;1270;22561;-67
2023/02/21 11:13:35;;;;;;;4.10;1.10;;;;;;;4.89;100.00;97560.49;110170;1274;23264;-67
2023/02/21 11:16:15;;;;;;;4.90;1.30;;;;;;;4.90;100.00;97572.23;110081;1275;23148;-66
2023/02/21 11:18:43;;;;;;;7.90;1.60;;;;;;;5.02;100.00;97570.80;109917;1278;22372;-66
2023/02/21 11:21:16;;;;;;;6.80;1.50;;;;;;;5.14;100.00;97566.98;110168;1277;22406;-66
2023/02/21 11:23:46;;;;;;;4.90;1.40;;;;;;;5.22;100.00;97562.30;109993;1278;23129;-66
2023/02/21 11:26:14;;;;;;;4.40;1.40;;;;;;;5.27;100.00;97566.71;109981;1277;22359;-66
2023/02/21 11:28:43;;;;;;;4.20;1.10;;;;;;;5.41;100.00;97569.98;110172;1277;23553;-66
2023/02/21 11:31:28;;;;;;;3.30;0.90;;;;;;;5.53;100.00;97567.71;109950;1269;22468;-66
2023/02/21 11:34:02;;;;;;;3.30;1.30;;;;;;;5.58;100.00;97572.18;110186;1277;22950;-66
2023/02/21 11:36:35;;;;;;;4.90;1.20;;;;;;;5.59;100.00;97570.70;110186;1277;22224;-66
2023/02/21 11:39:26;;;;;;;3.90;1.10;;;;;;;5.64;100.00;97573.39;110152;1277;22394;-66
2023/02/21 11:42:01;;;;;;;2.70;0.90;;;;;;;5.71;100.00;97570.15;110169;1277;22312;-67
2023/02/21 11:44:34;;;;;;;5.80;1.30;;;;;;;5.72;100.00;97576.23;110194;1278;22209;-67
2023/02/21 11:47:12;;;;;;;7.50;1.50;;;;;;;5.75;100.00;97587.14;110138;1277;22194;-66
2023/02/21 11:50:02;;;;;;;5.60;1.50;;;;;;;5.79;100.00;97592.27;110119;1277;22250;-66
2023/02/21 11:52:55;;;;;;;4.00;1.20;;;;;;;5.74;100.00;97594.02;110123;1275;22391;-66
2023/02/21 11:55:24;;;;;;;4.40;1.40;;;;;;;5.76;100.00;97600.91;110084;1277;22479;-66
2023/02/21 11:57:57;;;;;;;5.40;1.20;;;;;;;5.74;100.00;97607.27;110154;1277;23228;-66
2023/02/21 12:00:29;;;;;;;4.30;1.00;;;;;;;5.68;100.00;97605.50;110192;1277;22404;-66
2023/02/21 12:02:57;;;;;;;2.90;1.00;;;;;;;5.73;100.00;97596.04;110050;1276;22400;-66
2023/02/21 12:05:41;;;;;;;4.40;1.30;;;;;;;5.74;100.00;97598.17;110231;1277;22873;-66
2023/02/21 12:08:24;;;;;;;4.80;1.30;;;;;;;5.60;100.00;97603.77;110066;1276;23051;-66
2023/02/21 12:11:29;;;;;;;4.00;1.20;;;;;;;5.50;100.00;97603.52;110012;1277;22220;-66
2023/02/21 12:14:35;;;;;;;5.40;1.40;;;;;;;5.41;100.00;97604.14;110085;1271;23024;-66
2023/02/21 12:17:06;;;;;;;4.30;1.50;;;;;;;5.26;100.00;97606.98;110056;1276;22500;-66
2023/02/21 12:19:54;;;;;;;3.60;1.10;;;;;;;5.23;100.00;97608.78;110206;1276;22420;-66
2023/02/21 12:22:53;;;;;;;4.80;1.70;;;;;;;5.34;100.00;97607.56;110042;1275;22322;-66
2023/02/21 12:25:51;;;;;;;6.00;1.70;;;;;;;5.45;100.00;97602.69;110198;1275;22236;-66
2023/02/21 12:28:53;;;;;;;6.60;1.90;;;;;;;5.53;100.00;97599.76;110155;1277;22283;-66
2023/02/21 12:31:36;;;;;;;4.30;1.20;;;;;;;5.69;100.00;97589.94;110012;1274;23008;-66
2023/02/21 12:34:23;;;;;;;4.90;1.20;;;;;;;5.83;100.00;97589.58;110138;1273;22881;-67
2023/02/21 12:37:13;;;;;;;3.00;1.00;;;;;;;5.90;100.00;97591.27;110175;1270;22232;-67
2023/02/21 12:39:56;;;;;;;4.10;1.20;;;;;;;6.09;100.00;97598.27;110250;1276;22890;-67
2023/02/21 12:42:39;;;;;;;4.00;0.90;;;;;;;6.20;100.00;97599.82;110170;1271;22248;-67
2023/02/21 12:45:19;;;;;;;3.10;1.00;;;;;;;6.18;100.00;97599.75;110162;1277;22286;-67
2023/02/21 12:48:03;;;;;;;3.60;1.10;;;;;;;6.18;100.00;97601.15;110194;1271;22177;-67
2023/02/21 12:50:52;;;;;;;4.00;1.00;;;;;;;6.23;100.00;97609.08;110176;1272;22331;-67
2023/02/21 12:53:33;;;;;;;4.20;1.20;;;;;;;6.22;100.00;97609.84;110002;1270;22874;-67
2023/02/21 12:56:06;;;;;;;4.50;1.30;;;;;;;6.27;100.00;97604.20;110218;1277;22276;-67
2023/02/21 12:58:45;;;;;;;5.60;1.10;;;;;;;6.27;100.00;97598.25;110023;1276;22749;-67
2023/02/21 13:01:16;;;;;;;4.30;1.10;;;;;;;6.22;100.00;97600.61;110077;1276;22798;-68
2023/02/21 13:03:59;;;;;;;4.00;0.80;;;;;;;6.28;100.00;97607.68;110179;1277;22257;-67
2023/02/21 13:06:41;;;;;;;4.30;1.50;;;;;;;6.44;100.00;97604.77;110090;1276;22304;-67
2023/02/21 13:09:33;;;;;;;4.50;1.30;;;;;;;6.50;100.00;97610.77;109981;1274;22415;-67
2023/02/21 13:12:08;;;;;;;3.70;1.10;;;;;;;6.63;100.00;97612.17;110222;1271;23236;-67
2023/02/21 13:14:46;;;;;;;4.50;1.30;;;;;;;6.74;100.00;97601.66;110192;1274;22334;-67
2023/02/21 13:17:16;;;;;;;4.40;1.40;;;;;;;6.77;100.00;97606.73;109982;1274;23167;-67
2023/02/21 13:20:00;;;;;;;8.00;1.50;;;;;;;6.78;100.00;97617.69;110050;1277;22198;-67
2023/02/21 13:23:07;;;;;;;4.60;1.20;;;;;;;6.83;100.00;97615.94;110027;1277;22193;-67
2023/02/21 13:25:57;;;;;;;4.00;1.20;;;;;;;6.87;100.00;97616.27;110095;1270;22465;-68
2023/02/21 13:28:29;;;;;;;4.00;1.10;;;;;;;6.81;100.00;97611.32;110112;1271;22418;-68
2023/02/21 13:30:58;;;;;;;3.40;1.00;;;;;;;6.77;100.00;97610.25;110150;1276;22382;-68
2023/02/21 13:33:42;;;;;;;4.30;1.10;;;;;;;6.81;100.00;97610.06;110019;1270;23037;-68
2023/02/21 13:36:29;;;;;;;3.70;1.00;;;;;;;6.88;100.00;97608.78;110181;1274;22296;-68
2023/02/21 13:39:00;;;;;;;5.00;1.20;;;;;;;6.83;100.00;97610.14;110157;1277;22909;-68
2023/02/21 13:44:41;;;;;;;3.80;0.90;;;;;;;6.68;100.00;97621.30;104294;1305;545137;-67
2023/02/21 13:47:22;;;;;;;2.30;0.90;;;;;;;6.65;100.00;97627.08;106534;1288;25360;-67
2023/02/21 13:49:57;;;;;;;3.30;0.80;;;;;;;6.66;100.00;97622.73;106826;1287;22844;-67
2023/02/21 13:52:35;;;;;;;2.90;0.70;;;;;;;6.67;100.00;97623.29;106735;1286;22571;-67
2023/02/21 13:55:16;;;;;;;2.00;0.60;;;;;;;6.72;100.00;97629.66;106930;1288;23395;-67
2023/02/21 13:57:59;;;;;;;2.60;0.80;;;;;;;6.77;100.00;97640.15;106667;1283;259472;-67
2023/02/21 14:00:27;;;;;;;4.20;1.30;;;;;;;6.64;100.00;97641.19;106995;1278;25338;-67
2023/02/21 14:02:56;;;;;;;2.00;0.50;;;;;;;6.44;100.00;97644.55;107210;1286;22559;-68
2023/02/21 14:05:25;;;;;;;1.70;0.40;;;;;;;6.34;100.00;97645.80;109629;1286;23350;-67
2023/02/21 14:08:05;;;;;;;2.10;0.40;;;;;;;6.30;100.00;97653.11;109524;1287;22226;-68
2023/02/21 14:10:46;;;;;;;3.90;0.90;;;;;;;6.23;100.00;97654.56;109576;1286;23115;-67
2023/02/21 14:13:41;;;;;;;2.90;0.90;;;;;;;6.18;100.00;97661.34;109424;1286;22343;-67
2023/02/21 14:16:13;;;;;;;3.80;1.10;;;;;;;6.22;100.00;97663.83;109545;1282;23000;-67
2023/02/21 14:19:07;;;;;;;3.80;0.70;;;;;;;6.18;100.00;97668.97;109721;1286;22457;-67